Time;durP1;ratioP1;P1;durP2;ratioP2;P2;SDS_P1;SDS_P2;PMS_P1;PMS_P2;Temp;Humidity;BMP_temperature;BMP_pressure;BME280_temperature;BME280_humidity;BME280_pressure;Samples;Min_cycle;Max_cycle;Signal;HPM_P1;HPM_P2
2023/04/05 00:00:46;;;;;;;5.50;4.93;;;;;;;5.28;47.35;99342.84;7054658;28;20291;-77
2023/04/05 00:04:08;;;;;;;4.80;4.33;;;;;;;5.47;46.69;99369.34;7074305;27;20283;-77
2023/04/05 00:07:29;;;;;;;6.13;5.60;;;;;;;5.25;47.32;99352.03;7087317;27;20286;-77
2023/04/05 00:10:51;;;;;;;8.17;5.70;;;;;;;4.97;48.26;99363.03;7085329;27;20204;-77
2023/04/05 00:14:12;;;;;;;6.63;5.47;;;;;;;4.84;48.28;99358.09;7083044;27;20310;-77
2023/04/05 00:17:35;;;;;;;5.50;4.90;;;;;;;5.01;48.09;99351.06;7083161;27;20208;-78
2023/04/05 00:20:56;;;;;;;9.00;5.10;;;;;;;5.27;46.97;99347.38;7079943;27;20233;-77
2023/04/05 00:24:19;;;;;;;6.73;5.40;;;;;;;4.92;48.03;99336.81;7080282;27;20228;-78
2023/04/05 00:27:43;;;;;;;5.07;4.57;;;;;;;5.06;48.06;99343.38;7080008;27;20203;-77
2023/04/05 00:31:05;;;;;;;11.60;8.70;;;;;;;4.82;48.15;99312.00;7079611;27;20212;-77
2023/04/05 00:34:27;;;;;;;11.63;7.67;;;;;;;5.08;47.77;99333.41;7080397;27;20248;-77
2023/04/05 00:37:49;;;;;;;5.63;5.13;;;;;;;5.14;47.51;99312.19;7082273;27;20279;-77
2023/04/05 00:41:11;;;;;;;6.67;5.93;;;;;;;4.91;48.49;99321.78;7081718;27;20305;-77
2023/04/05 00:44:33;;;;;;;6.23;5.60;;;;;;;4.89;48.68;99317.59;7081850;27;20853;-78
2023/04/05 00:47:55;;;;;;;8.00;5.30;;;;;;;4.68;49.35;99317.94;7080558;27;20212;-78
2023/04/05 00:51:19;;;;;;;5.67;5.17;;;;;;;4.92;48.63;99322.59;7081232;27;20208;-78
2023/04/05 00:54:42;;;;;;;7.87;5.50;;;;;;;5.20;47.79;99308.91;7081834;27;20250;-79
2023/04/05 00:58:03;;;;;;;6.20;5.70;;;;;;;5.17;47.60;99316.41;7082006;27;20571;-77
2023/04/05 01:01:26;;;;;;;9.27;5.70;;;;;;;5.13;47.57;99325.75;7080841;27;20275;-77
2023/04/05 01:04:55;;;;;;;6.23;5.63;;;;;;;5.20;47.05;99311.56;7081059;27;20232;-77
2023/04/05 01:08:25;;;;;;;6.30;5.70;;;;;;;4.96;48.10;99299.91;7081918;27;20634;-77
2023/04/05 01:11:47;;;;;;;7.13;5.60;;;;;;;4.97;48.38;99302.44;7081038;27;20237;-78
2023/04/05 01:15:09;;;;;;;6.63;5.40;;;;;;;5.06;48.14;99292.63;7081074;27;20539;-77
2023/04/05 01:18:31;;;;;;;6.57;5.33;;;;;;;5.16;47.14;99294.19;7080705;27;20200;-78
2023/04/05 01:22:25;;;;;;;6.57;4.80;;;;;;;4.83;48.01;99291.50;7079706;27;20617;-77
2023/04/05 01:26:12;;;;;;;7.53;5.50;;;;;;;4.63;48.29;99290.00;7068166;27;20553;-77
2023/04/05 01:29:50;;;;;;;6.63;5.63;;;;;;;4.35;48.81;99272.44;7063590;27;20627;-77
2023/04/05 01:33:17;;;;;;;6.10;5.53;;;;;;;4.71;47.88;99276.72;7080474;27;20225;-78
2023/04/05 01:36:41;;;;;;;6.13;5.53;;;;;;;4.87;47.49;99266.13;7081287;27;20343;-77
2023/04/05 01:40:05;;;;;;;6.13;5.53;;;;;;;4.89;47.63;99270.31;7081000;27;20298;-77
2023/04/05 01:43:27;;;;;;;8.07;5.37;;;;;;;4.79;48.02;99268.75;7081310;27;20235;-79
2023/04/05 01:46:50;;;;;;;7.03;5.50;;;;;;;4.16;49.26;99252.13;7080503;27;20241;-80
2023/04/05 01:50:11;;;;;;;9.50;6.13;;;;;;;4.21;49.52;99273.00;7079892;27;20261;-78
2023/04/05 01:53:33;;;;;;;6.87;5.37;;;;;;;4.13;49.83;99273.75;7080050;27;20278;-77
2023/04/05 01:56:55;;;;;;;7.20;6.00;;;;;;;3.98;50.45;99261.97;7080495;27;20682;-77
2023/04/05 02:00:17;;;;;;;6.43;5.80;;;;;;;4.10;50.33;99268.75;7079648;27;20691;-77
2023/04/05 02:03:40;;;;;;;6.73;6.13;;;;;;;4.19;49.78;99274.97;7074744;27;20745;-78
2023/04/05 02:07:01;;;;;;;7.40;6.13;;;;;;;4.10;49.98;99267.88;7080791;27;20225;-76
2023/04/05 02:10:25;;;;;;;8.03;7.23;;;;;;;4.18;49.45;99271.47;7079851;28;20671;-77
2023/04/05 02:13:46;;;;;;;7.43;6.03;;;;;;;4.46;48.93;99259.69;7080489;28;20597;-77
2023/04/05 02:17:08;;;;;;;7.20;6.20;;;;;;;4.49;48.22;99254.03;7080227;28;20218;-77
2023/04/05 02:20:31;;;;;;;8.97;6.40;;;;;;;4.29;49.12;99255.22;7079792;28;20298;-78
2023/04/05 02:23:53;;;;;;;8.13;5.87;;;;;;;4.57;48.79;99259.44;7079916;28;20241;-77
2023/04/05 02:27:15;;;;;;;6.73;5.50;;;;;;;4.57;48.70;99258.59;7080304;28;20575;-78
2023/04/05 02:30:36;;;;;;;6.97;6.10;;;;;;;4.43;48.82;99249.31;7079227;28;20205;-77
2023/04/05 02:33:59;;;;;;;7.93;5.97;;;;;;;4.16;49.98;99262.78;7080094;28;20229;-78
2023/04/05 02:37:24;;;;;;;6.57;5.97;;;;;;;4.24;49.35;99254.03;7080010;28;20204;-78
2023/04/05 02:40:46;;;;;;;6.67;6.00;;;;;;;4.43;48.75;99245.81;7079041;28;20229;-77
2023/04/05 02:44:07;;;;;;;6.87;6.07;;;;;;;4.44;48.21;99231.47;7079967;28;20219;-78
2023/04/05 02:47:29;;;;;;;7.97;6.03;;;;;;;4.54;47.83;99249.06;7078340;28;20287;-78
2023/04/05 02:50:51;;;;;;;7.80;7.00;;;;;;;3.69;49.97;99234.66;7079035;28;20205;-78
2023/04/05 02:54:14;;;;;;;8.13;6.43;;;;;;;4.14;49.98;99251.41;7079552;28;20225;-78
2023/04/05 02:57:35;;;;;;;7.70;6.37;;;;;;;4.30;48.76;99250.72;7079503;28;20292;-76
2023/04/05 03:00:57;;;;;;;10.60;6.97;;;;;;;4.15;48.25;99206.91;7079326;28;20228;-77
2023/04/05 03:04:18;;;;;;;8.97;5.83;;;;;;;4.51;48.11;99246.72;7079753;28;20307;-77
2023/04/05 03:07:41;;;;;;;6.87;5.73;;;;;;;4.45;48.17;99244.66;7080004;28;20288;-77
2023/04/05 03:11:05;;;;;;;8.07;7.23;;;;;;;3.84;49.63;99237.66;7080988;27;20563;-77
2023/04/05 03:14:26;;;;;;;10.73;7.37;;;;;;;3.62;49.93;99238.09;7084489;27;20312;-78
2023/04/05 03:17:47;;;;;;;7.60;6.90;;;;;;;3.79;50.53;99245.25;7085066;27;20252;-78
2023/04/05 03:21:11;;;;;;;8.87;7.33;;;;;;;3.52;50.31;99206.16;7083696;27;20305;-78
2023/04/05 03:24:32;;;;;;;8.13;6.97;;;;;;;3.97;49.25;99228.28;7084378;27;20224;-77
2023/04/05 03:27:56;;;;;;;7.90;7.10;;;;;;;3.92;49.16;99241.22;7084632;27;20204;-77
2023/04/05 03:31:18;;;;;;;8.67;7.83;;;;;;;4.05;49.69;99235.50;7083529;27;20210;-76
2023/04/05 03:34:39;;;;;;;9.60;8.70;;;;;;;3.65;51.13;99237.81;7084284;27;20232;-76
2023/04/05 03:38:01;;;;;;;7.67;6.60;;;;;;;3.80;49.73;99221.13;7083897;27;20724;-77
2023/04/05 03:41:22;;;;;;;7.00;6.30;;;;;;;3.66;49.66;99226.97;7083841;27;20283;-76
2023/04/05 03:44:46;;;;;;;8.90;7.07;;;;;;;3.75;50.27;99238.53;7084222;27;20310;-79
2023/04/05 03:48:08;;;;;;;8.43;7.50;;;;;;;3.29;51.54;99242.22;7082715;27;20203;-78
2023/04/05 03:51:30;;;;;;;7.83;7.13;;;;;;;3.37;50.79;99209.50;7083004;27;20259;-78
2023/04/05 03:54:51;;;;;;;9.03;7.70;;;;;;;3.63;50.79;99223.75;7083912;27;20621;-77
2023/04/05 03:58:12;;;;;;;9.33;7.77;;;;;;;3.61;50.50;99237.22;7083845;27;20207;-78
2023/04/05 04:01:35;;;;;;;8.07;6.63;;;;;;;3.94;49.54;99241.91;7082987;27;20361;-77
2023/04/05 04:04:57;;;;;;;8.77;7.17;;;;;;;3.14;51.17;99245.53;7077366;27;20231;-79
2023/04/05 04:08:18;;;;;;;10.03;8.03;;;;;;;3.17;51.71;99255.88;7082731;27;20581;-77
2023/04/05 04:11:40;;;;;;;10.37;7.57;;;;;;;3.08;51.53;99248.78;7082105;27;20200;-78
2023/04/05 04:15:01;;;;;;;9.70;7.37;;;;;;;3.49;51.31;99249.09;7082094;27;20279;-78
2023/04/05 04:18:24;;;;;;;8.23;7.03;;;;;;;3.40;49.89;99223.38;7082155;27;20263;-78
2023/04/05 04:21:50;;;;;;;7.50;6.80;;;;;;;3.44;50.44;99216.75;7081269;27;20313;-78
2023/04/05 04:25:15;;;;;;;8.73;7.43;;;;;;;3.51;50.09;99243.63;7101021;27;20231;-77
2023/04/05 04:28:37;;;;;;;7.90;7.13;;;;;;;3.64;50.09;99249.44;7083131;27;20600;-79
2023/04/05 04:31:59;;;;;;;13.17;9.00;;;;;;;3.49;50.16;99256.28;7081694;27;20205;-78
2023/04/05 04:35:24;;;;;;;9.77;7.93;;;;;;;3.17;51.18;99254.06;7081733;27;20228;-77
2023/04/05 04:38:46;;;;;;;10.23;8.50;;;;;;;3.19;52.02;99256.59;7081604;27;20214;-78
2023/04/05 04:42:09;;;;;;;8.57;7.67;;;;;;;3.48;50.79;99257.28;7081014;27;20224;-78
2023/04/05 04:45:33;;;;;;;11.17;6.83;;;;;;;3.50;49.71;99245.47;7081590;27;20360;-77
2023/04/05 04:48:56;;;;;;;7.93;7.20;;;;;;;3.33;50.30;99251.59;7080371;27;20709;-78
2023/04/05 04:52:19;;;;;;;11.00;8.57;;;;;;;3.26;49.91;99226.50;7080798;27;20272;-78
2023/04/05 04:55:41;;;;;;;10.40;7.77;;;;;;;3.51;50.08;99257.81;7081319;27;20284;-79
2023/04/05 04:59:02;;;;;;;8.03;7.23;;;;;;;3.68;49.09;99235.66;7081644;27;20226;-78
2023/04/05 05:02:24;;;;;;;12.00;8.57;;;;;;;3.48;49.63;99255.44;7080813;27;20357;-78
2023/04/05 05:05:46;;;;;;;9.73;8.30;;;;;;;3.41;49.99;99261.50;7073286;27;20227;-77
2023/04/05 05:09:09;;;;;;;9.83;8.17;;;;;;;3.44;49.63;99254.06;7092158;27;20203;-77
2023/04/05 05:12:31;;;;;;;9.30;7.67;;;;;;;3.55;49.60;99243.16;7094340;27;20208;-77
2023/04/05 05:15:53;;;;;;;9.47;7.83;;;;;;;3.54;49.51;99254.00;7080171;27;20235;-77
2023/04/05 05:19:14;;;;;;;8.87;7.80;;;;;;;3.36;50.33;99253.94;7080256;27;20290;-77
2023/04/05 05:22:36;;;;;;;9.40;8.13;;;;;;;3.05;50.45;99201.13;7079956;27;20231;-77
2023/04/05 05:25:59;;;;;;;10.53;8.20;;;;;;;3.22;51.34;99253.63;7105445;27;20697;-77
2023/04/05 05:29:21;;;;;;;10.37;8.30;;;;;;;3.30;50.26;99259.06;7109624;27;20202;-77
2023/04/05 05:32:42;;;;;;;9.73;7.97;;;;;;;3.61;49.16;99252.41;7108706;27;20219;-77
2023/04/05 05:36:04;;;;;;;9.13;8.10;;;;;;;3.02;51.58;99262.69;7110009;27;20213;-77
2023/04/05 05:39:26;;;;;;;13.17;8.00;;;;;;;3.20;51.40;99258.25;7115496;27;20332;-78
2023/04/05 05:42:49;;;;;;;8.63;7.20;;;;;;;3.34;50.51;99257.75;7134884;27;20247;-78
2023/04/05 05:46:11;;;;;;;9.43;8.40;;;;;;;3.16;51.80;99260.38;7108980;27;20210;-77
2023/04/05 05:49:32;;;;;;;13.73;9.77;;;;;;;2.93;51.61;99213.81;7111429;27;20212;-80
2023/04/05 05:52:54;;;;;;;11.90;8.17;;;;;;;3.59;51.64;99249.06;7113685;27;20294;-77
2023/04/05 05:56:15;;;;;;;9.77;7.50;;;;;;;4.19;49.22;99258.97;7073823;27;20200;-78
2023/04/05 05:59:38;;;;;;;9.73;8.07;;;;;;;4.47;48.88;99255.16;7051769;28;20752;-77
2023/04/05 06:03:00;;;;;;;10.00;8.17;;;;;;;5.05;47.53;99241.03;7058286;28;20230;-81
2023/04/05 06:06:22;;;;;;;10.13;7.83;;;;;;;5.19;47.43;99261.78;7077942;27;20200;-78
2023/04/05 06:09:44;;;;;;;8.90;7.60;;;;;;;5.08;47.55;99250.56;7078633;28;20256;-78
2023/04/05 06:13:05;;;;;;;14.50;8.50;;;;;;;5.79;46.23;99247.28;7079057;28;20228;-78
2023/04/05 06:16:29;;;;;;;10.27;8.30;;;;;;;6.44;45.01;99257.09;7079699;28;20554;-77
2023/04/05 06:19:51;;;;;;;10.63;8.43;;;;;;;7.26;42.75;99244.16;7079044;28;20691;-76
2023/04/05 06:23:13;;;;;;;8.87;7.97;;;;;;;7.20;43.39;99244.84;7079953;28;20236;-78
2023/04/05 06:26:34;;;;;;;12.13;8.80;;;;;;;7.49;42.20;99245.06;7060140;28;20258;-77
2023/04/05 06:29:59;;;;;;;11.37;8.90;;;;;;;7.33;42.56;99242.47;7050287;28;20211;-78
2023/04/05 06:33:22;;;;;;;12.37;9.63;;;;;;;7.50;43.09;99237.84;7050021;28;20222;-75
2023/04/05 06:36:43;;;;;;;12.73;9.93;;;;;;;8.28;40.88;99239.41;7052413;28;20651;-76
2023/04/05 06:40:06;;;;;;;14.37;9.80;;;;;;;7.93;41.50;99243.47;7052243;28;20341;-78
2023/04/05 06:43:28;;;;;;;13.53;9.33;;;;;;;7.69;42.22;99250.84;7078953;28;20233;-77
2023/04/05 06:46:49;;;;;;;10.97;8.70;;;;;;;7.81;42.31;99252.09;7081977;27;20275;-77
2023/04/05 06:50:12;;;;;;;9.67;8.10;;;;;;;7.81;40.40;99250.28;7078675;27;20264;-76
2023/04/05 06:53:34;;;;;;;10.50;7.53;;;;;;;7.50;40.03;99244.06;7083605;27;20716;-76
2023/04/05 06:56:56;;;;;;;8.23;7.43;;;;;;;7.76;40.40;99247.28;7078209;27;20296;-77
2023/04/05 07:00:17;;;;;;;11.23;7.57;;;;;;;7.77;39.80;99248.13;7065148;27;20209;-79
2023/04/05 07:03:39;;;;;;;9.47;7.07;;;;;;;8.15;39.59;99242.66;7065535;27;20224;-76
2023/04/05 07:07:02;;;;;;;8.77;7.47;;;;;;;8.48;39.87;99245.97;7065001;27;20193;-78
2023/04/05 07:10:23;;;;;;;10.83;7.40;;;;;;;8.85;39.22;99233.31;7071943;27;20204;-76
2023/04/05 07:13:45;;;;;;;8.40;7.50;;;;;;;9.21;39.06;99248.53;7081743;27;20303;-76
2023/04/05 07:17:07;;;;;;;10.37;8.07;;;;;;;8.45;40.25;99240.94;7083606;27;20283;-78
2023/04/05 07:20:28;;;;;;;10.37;8.60;;;;;;;9.15;39.70;99222.38;7063705;27;20291;-76
2023/04/05 07:23:52;;;;;;;8.80;7.87;;;;;;;9.93;38.47;99239.53;7056799;27;20224;-76
2023/04/05 07:27:14;;;;;;;10.27;7.77;;;;;;;10.51;36.45;99222.31;7055611;28;20235;-76
2023/04/05 07:30:36;;;;;;;8.80;7.77;;;;;;;10.66;36.94;99241.94;7058660;27;20211;-78
2023/04/05 07:33:59;;;;;;;7.57;6.77;;;;;;;11.91;33.65;99191.13;7083468;27;20268;-77
2023/04/05 07:37:20;;;;;;;9.53;8.13;;;;;;;11.82;33.86;99224.78;7083732;27;20251;-75
2023/04/05 07:40:43;;;;;;;11.20;7.50;;;;;;;11.32;35.11;99226.00;7069780;27;20611;-76
2023/04/05 07:44:05;;;;;;;7.87;6.63;;;;;;;11.11;34.41;99231.47;7054487;28;20235;-76
2023/04/05 07:47:26;;;;;;;8.00;6.87;;;;;;;10.80;35.48;99228.34;7054559;28;20219;-76
2023/04/05 07:50:48;;;;;;;9.27;7.20;;;;;;;11.68;33.86;99207.69;7054139;28;20212;-76
2023/04/05 07:54:10;;;;;;;8.37;6.33;;;;;;;11.88;32.26;99219.44;7054016;27;20358;-77
2023/04/05 07:57:33;;;;;;;6.73;5.87;;;;;;;12.83;31.20;99225.34;7070506;27;20212;-75
2023/04/05 08:00:59;;;;;;;9.03;6.00;;;;;;;13.26;30.54;99223.84;7080600;27;20235;-77
2023/04/05 08:04:21;;;;;;;6.60;6.00;;;;;;;12.91;29.92;99223.25;7056294;27;20276;-78
2023/04/05 08:07:42;;;;;;;6.83;6.13;;;;;;;12.87;30.19;99234.72;7053985;28;20212;-76
2023/04/05 08:11:04;;;;;;;9.50;5.97;;;;;;;11.57;30.88;99224.44;7053669;28;20662;-78
2023/04/05 08:14:27;;;;;;;8.27;6.33;;;;;;;13.39;29.32;99218.44;7066641;27;20303;-77
2023/04/05 08:17:49;;;;;;;7.73;5.80;;;;;;;13.46;28.33;99221.94;7083014;27;20302;-78
2023/04/05 08:21:10;;;;;;;6.43;5.40;;;;;;;12.58;28.91;99227.03;7081927;27;20740;-77
2023/04/05 08:24:32;;;;;;;6.97;6.17;;;;;;;11.70;30.30;99221.81;7081975;27;20235;-77
2023/04/05 08:27:53;;;;;;;7.30;5.80;;;;;;;12.85;29.18;99215.97;7082404;27;20204;-78
2023/04/05 08:31:16;;;;;;;6.50;5.63;;;;;;;14.62;26.99;99201.47;7081716;27;20611;-77
2023/04/05 08:34:38;;;;;;;8.73;5.50;;;;;;;14.85;27.36;99211.72;7082141;27;20752;-77
2023/04/05 08:37:59;;;;;;;5.97;5.37;;;;;;;14.94;24.97;99219.41;7081980;27;20661;-76
2023/04/05 08:41:23;;;;;;;6.87;5.30;;;;;;;12.89;27.25;99206.41;7075538;27;20235;-77
2023/04/05 08:44:45;;;;;;;6.90;4.90;;;;;;;12.50;28.27;99206.41;7080275;27;20635;-77
2023/04/05 08:48:08;;;;;;;9.07;5.10;;;;;;;13.20;26.98;99211.16;7080455;27;20230;-76
2023/04/05 08:51:30;;;;;;;6.10;4.70;;;;;;;13.12;26.48;99205.97;7072192;27;20214;-76
2023/04/05 08:54:53;;;;;;;6.07;4.60;;;;;;;12.50;27.18;99192.03;7081335;27;20577;-76
2023/04/05 08:58:15;;;;;;;6.83;4.97;;;;;;;13.71;25.47;99210.19;7063638;27;20206;-78
2023/04/05 09:01:38;;;;;;;5.60;4.43;;;;;;;12.22;26.88;99205.75;7051829;28;20359;-78
2023/04/05 09:05:02;;;;;;;6.33;4.13;;;;;;;12.99;25.49;99211.44;7052692;28;20704;-77
2023/04/05 09:08:23;;;;;;;4.77;4.20;;;;;;;14.63;23.89;99197.72;7052047;28;20200;-77
2023/04/05 09:11:45;;;;;;;4.73;4.13;;;;;;;13.00;23.40;99216.63;7052077;28;20350;-76
2023/04/05 09:15:07;;;;;;;4.57;3.80;;;;;;;13.36;24.90;99214.25;7053747;27;20230;-78
2023/04/05 09:18:30;;;;;;;3.93;3.53;;;;;;;13.23;24.78;99216.16;7053679;27;20283;-78
2023/04/05 09:22:01;;;;;;;5.20;3.83;;;;;;;13.12;23.39;99208.69;7051090;28;20214;-78
2023/04/05 09:25:37;;;;;;;4.67;3.57;;;;;;;13.39;24.25;99213.81;7051967;28;20224;-77
2023/04/05 09:28:59;;;;;;;4.20;3.43;;;;;;;14.11;22.69;99210.81;7052176;28;20200;-77
2023/04/05 09:32:27;;;;;;;3.63;3.33;;;;;;;15.09;22.35;99198.13;7051438;28;20296;-78
2023/04/05 09:35:50;;;;;;;4.50;4.10;;;;;;;13.80;23.41;99203.44;7052076;28;20280;-77
2023/04/05 09:39:15;;;;;;;6.13;4.30;;;;;;;14.84;23.22;99208.19;7051633;28;20207;-76
2023/04/05 09:42:43;;;;;;;7.87;4.13;;;;;;;15.67;22.23;99193.13;7080601;27;22767;-78
2023/04/05 09:46:05;;;;;;;4.70;4.30;;;;;;;15.53;22.58;99181.59;7082877;27;20213;-78
2023/04/05 09:49:32;;;;;;;4.57;4.17;;;;;;;15.00;21.87;99209.50;7082682;27;20250;-79
2023/04/05 09:53:06;;;;;;;7.40;4.40;;;;;;;13.25;24.47;99189.69;7077004;27;20235;-79
2023/04/05 09:56:31;;;;;;;4.90;4.40;;;;;;;13.71;23.81;99203.91;7083784;27;20197;-79
2023/04/05 09:59:53;;;;;;;5.07;4.53;;;;;;;13.28;24.83;99194.69;7081493;27;20274;-79
2023/04/05 10:03:15;;;;;;;5.07;4.57;;;;;;;12.32;25.70;99181.00;7081274;27;20293;-79
2023/04/05 10:06:38;;;;;;;5.03;4.40;;;;;;;13.33;24.88;99192.19;7080634;27;20203;-77
2023/04/05 10:10:00;;;;;;;4.00;3.70;;;;;;;13.42;25.61;99197.16;7081154;28;20349;-79
2023/04/05 10:13:22;;;;;;;4.93;4.20;;;;;;;14.32;23.62;99188.78;7083252;28;20226;-78
2023/04/05 10:16:48;;;;;;;4.70;3.90;;;;;;;15.26;23.13;99173.91;7080413;28;20288;-79
2023/04/05 10:20:14;;;;;;;5.57;3.90;;;;;;;15.32;23.07;99178.44;7082868;27;20246;-78
2023/04/05 10:23:37;;;;;;;5.97;4.23;;;;;;;15.55;23.65;99165.03;7082234;27;20313;-79
2023/04/05 10:27:05;;;;;;;7.47;4.63;;;;;;;16.01;23.07;99167.97;7086360;27;20198;-81
2023/04/05 10:30:34;;;;;;;6.20;4.67;;;;;;;16.37;22.38;99155.09;7087061;27;20226;-80
2023/04/05 10:34:04;;;;;;;6.70;4.60;;;;;;;15.62;22.65;99134.00;7086162;27;20237;-80
2023/04/05 10:37:33;;;;;;;5.43;4.40;;;;;;;16.58;22.57;99160.00;7086654;27;20561;-79
2023/04/05 10:40:57;;;;;;;15.87;7.47;;;;;;;17.33;21.95;99142.69;7086484;27;20216;-79
2023/04/05 10:44:19;;;;;;;4.80;4.20;;;;;;;15.78;22.19;99157.00;7084548;27;20244;-77
2023/04/05 10:47:48;;;;;;;4.67;4.27;;;;;;;15.22;22.80;99159.16;7081942;27;20204;-77
2023/04/05 10:51:10;;;;;;;4.23;3.90;;;;;;;13.86;24.16;99151.09;7075887;27;20212;-77
2023/04/05 10:54:33;;;;;;;4.50;4.10;;;;;;;14.33;23.88;99128.06;7069904;27;20221;-79
2023/04/05 10:57:55;;;;;;;4.97;4.30;;;;;;;14.81;23.95;99154.31;7094685;27;20249;-77
2023/04/05 11:01:18;;;;;;;5.00;4.50;;;;;;;13.45;24.54;99163.41;7083445;27;20262;-76
2023/04/05 11:04:41;;;;;;;5.20;4.43;;;;;;;15.04;23.91;99151.81;7083940;27;20580;-77
2023/04/05 11:08:04;;;;;;;4.83;4.33;;;;;;;15.99;22.99;99142.91;7085582;27;20569;-79
2023/04/05 11:11:26;;;;;;;4.57;4.00;;;;;;;15.01;23.88;99148.72;7062177;27;20256;-76
2023/04/05 11:14:48;;;;;;;5.37;4.17;;;;;;;14.78;23.38;99129.53;7055597;28;20867;-76
2023/04/05 11:18:10;;;;;;;3.90;3.60;;;;;;;14.38;24.33;99123.63;7055764;28;20212;-77
2023/04/05 11:21:34;;;;;;;4.87;4.37;;;;;;;14.04;23.52;99125.97;7054398;28;20209;-78
2023/04/05 11:24:57;;;;;;;4.50;4.10;;;;;;;15.60;23.13;99114.38;7054866;28;20228;-76
2023/04/05 11:28:29;;;;;;;4.23;3.83;;;;;;;15.95;23.17;99115.34;7058189;27;20293;-77
2023/04/05 11:32:00;;;;;;;4.30;3.80;;;;;;;16.85;21.86;99097.72;7053874;28;20257;-77
2023/04/05 11:35:22;;;;;;;5.27;4.50;;;;;;;15.48;20.55;99112.66;7055086;28;20275;-77
2023/04/05 11:38:45;;;;;;;4.27;3.87;;;;;;;15.70;21.66;99109.22;7055211;28;20579;-78
2023/04/05 11:42:11;;;;;;;4.80;4.13;;;;;;;15.62;21.00;99106.81;7063553;27;20206;-77
2023/04/05 11:45:33;;;;;;;3.83;3.53;;;;;;;15.50;21.44;99092.34;7082906;27;20235;-77
2023/04/05 11:48:56;;;;;;;4.87;4.03;;;;;;;14.34;22.31;99108.84;7083239;27;20273;-77
2023/04/05 11:52:20;;;;;;;4.87;4.13;;;;;;;15.17;22.82;99101.94;7081288;27;20355;-77
2023/04/05 11:55:45;;;;;;;4.70;4.20;;;;;;;16.09;21.87;99100.47;7082667;27;20244;-77
2023/04/05 11:59:06;;;;;;;4.23;3.87;;;;;;;15.04;22.05;99102.09;7082640;27;20664;-77
2023/04/05 12:02:27;;;;;;;3.93;3.53;;;;;;;15.35;21.79;99100.09;7070971;27;20216;-76
2023/04/05 12:05:51;;;;;;;4.70;4.30;;;;;;;14.80;23.76;99097.56;7054013;28;20215;-76
2023/04/05 12:09:12;;;;;;;5.47;4.43;;;;;;;14.90;22.30;99106.84;7054519;28;20267;-79
2023/04/05 12:12:39;;;;;;;4.50;4.10;;;;;;;14.91;23.52;99104.94;7056716;28;20201;-80
2023/04/05 12:16:01;;;;;;;4.40;4.00;;;;;;;16.46;21.67;99071.22;7056695;28;20599;-79
2023/04/05 12:19:23;;;;;;;7.07;4.73;;;;;;;14.91;22.15;99080.50;7054011;28;20728;-78
2023/04/05 12:22:47;;;;;;;4.97;4.30;;;;;;;14.82;22.50;99081.88;7067608;27;20228;-79
2023/04/05 12:26:08;;;;;;;6.37;4.23;;;;;;;14.15;23.07;99079.16;7074706;27;20226;-79
2023/04/05 12:29:31;;;;;;;4.57;4.17;;;;;;;14.23;22.35;99074.28;7053476;28;20217;-77
2023/04/05 12:32:54;;;;;;;4.13;3.60;;;;;;;14.83;22.48;99069.97;7053489;28;20349;-81
2023/04/05 12:36:15;;;;;;;5.23;4.00;;;;;;;15.46;21.80;99047.66;7054773;27;20676;-79
2023/04/05 12:39:38;;;;;;;4.60;4.17;;;;;;;16.55;19.96;99058.91;7081567;27;20207;-79
2023/04/05 12:43:03;;;;;;;4.77;4.37;;;;;;;15.11;21.58;99056.69;7080169;27;20231;-78
2023/04/05 12:46:38;;;;;;;6.03;4.20;;;;;;;15.25;21.83;99055.44;7081503;27;20221;-77
2023/04/05 12:50:10;;;;;;;6.03;4.43;;;;;;;15.59;21.88;99057.53;7076021;27;20199;-77
2023/04/05 12:53:32;;;;;;;5.50;4.67;;;;;;;16.49;20.72;99046.25;7069072;27;20314;-78
2023/04/05 12:56:54;;;;;;;6.60;4.30;;;;;;;15.59;21.39;99033.06;7060248;27;20322;-78
2023/04/05 13:00:16;;;;;;;4.23;3.63;;;;;;;15.24;21.01;99037.50;7056320;27;20722;-76
2023/04/05 13:03:39;;;;;;;5.77;4.80;;;;;;;15.35;21.97;99031.31;7070766;27;20334;-77
2023/04/05 13:07:00;;;;;;;5.10;4.60;;;;;;;15.49;22.75;99033.63;7070222;27;20207;-79
2023/04/05 13:10:23;;;;;;;5.83;4.40;;;;;;;16.11;22.43;99024.09;7055107;27;20658;-77
2023/04/05 13:13:45;;;;;;;5.33;4.23;;;;;;;16.98;21.56;99018.50;7051964;28;20314;-77
2023/04/05 13:17:06;;;;;;;5.40;4.40;;;;;;;15.42;21.23;99018.47;7052341;28;20237;-77
2023/04/05 13:20:29;;;;;;;5.70;4.30;;;;;;;15.49;22.09;99016.47;7075968;27;20262;-77
2023/04/05 13:23:51;;;;;;;4.97;4.47;;;;;;;15.86;21.31;99007.16;7079903;27;20281;-77
2023/04/05 13:27:12;;;;;;;5.07;4.60;;;;;;;15.02;22.10;99022.75;7066805;27;20197;-77
2023/04/05 13:30:34;;;;;;;4.33;3.93;;;;;;;16.34;20.79;99015.94;7073654;27;20216;-77
2023/04/05 13:33:55;;;;;;;5.07;4.53;;;;;;;16.95;21.28;99008.91;7077207;27;20215;-77
2023/04/05 13:37:18;;;;;;;5.03;4.50;;;;;;;17.08;21.05;98999.63;7080057;27;20764;-77
2023/04/05 13:40:40;;;;;;;4.80;4.37;;;;;;;15.80;21.47;98992.59;7079486;27;20205;-78
2023/04/05 13:44:01;;;;;;;5.03;3.90;;;;;;;16.40;20.72;99004.13;7074750;27;20567;-77
2023/04/05 13:47:23;;;;;;;5.23;4.70;;;;;;;15.40;22.44;98999.69;7079639;27;20276;-77
2023/04/05 13:50:44;;;;;;;5.27;4.77;;;;;;;15.52;21.84;98994.28;7079272;27;20302;-77
2023/04/05 13:54:10;;;;;;;4.73;4.30;;;;;;;14.30;23.20;98992.88;7079830;27;20227;-77
2023/04/05 13:57:31;;;;;;;4.77;4.23;;;;;;;16.12;21.97;98974.06;7080038;27;20271;-77
2023/04/05 14:00:53;;;;;;;4.80;4.27;;;;;;;15.19;22.87;98981.16;7079230;27;20199;-77
2023/04/05 14:04:15;;;;;;;5.03;4.50;;;;;;;15.22;23.10;98971.72;7079615;27;20372;-78
2023/04/05 14:07:36;;;;;;;5.60;4.43;;;;;;;16.13;22.96;98982.00;7079141;27;20304;-79
2023/04/05 14:10:59;;;;;;;5.10;4.60;;;;;;;16.29;22.40;98955.97;7069324;28;20196;-78
2023/04/05 14:14:23;;;;;;;5.07;4.57;;;;;;;16.03;22.74;98975.47;7050955;28;20227;-78
2023/04/05 14:17:44;;;;;;;6.07;4.60;;;;;;;16.58;21.53;98971.34;7051538;28;20747;-78
2023/04/05 14:21:06;;;;;;;4.93;4.43;;;;;;;16.69;21.69;98973.22;7050022;28;20208;-79
2023/04/05 14:24:27;;;;;;;4.70;4.30;;;;;;;16.93;22.33;98955.75;7051443;28;20228;-78
2023/04/05 14:27:50;;;;;;;6.23;4.50;;;;;;;15.53;23.27;98966.91;7050598;28;20247;-78
2023/04/05 14:31:12;;;;;;;5.10;4.57;;;;;;;15.77;22.37;98955.00;7059294;28;20215;-78
2023/04/05 14:34:35;;;;;;;4.70;4.30;;;;;;;16.28;22.35;98960.56;7079001;28;20223;-78
2023/04/05 14:37:56;;;;;;;6.30;4.60;;;;;;;16.05;22.58;98965.19;7079302;28;20207;-78
2023/04/05 14:41:18;;;;;;;4.40;3.90;;;;;;;15.42;23.25;98953.25;7079207;28;20210;-78
2023/04/05 14:44:41;;;;;;;4.80;4.40;;;;;;;14.76;24.23;98947.06;7078304;28;20258;-78
2023/04/05 14:48:03;;;;;;;4.43;4.03;;;;;;;15.71;23.75;98950.50;7062743;28;20206;-78
2023/04/05 14:51:24;;;;;;;5.63;4.00;;;;;;;15.97;23.28;98954.63;7049431;28;20216;-78
2023/04/05 14:54:46;;;;;;;5.53;4.50;;;;;;;16.13;23.18;98953.94;7070692;28;20212;-78
2023/04/05 14:58:07;;;;;;;5.03;4.57;;;;;;;16.08;23.28;98957.38;7068400;28;20240;-77
2023/04/05 15:01:30;;;;;;;5.07;4.60;;;;;;;16.20;22.79;98941.03;7077530;28;20208;-78
2023/04/05 15:04:52;;;;;;;5.50;4.20;;;;;;;15.08;23.32;98949.34;7062076;28;20662;-78
2023/04/05 15:08:14;;;;;;;5.87;4.50;;;;;;;14.71;23.50;98941.50;7077588;27;20273;-78
2023/04/05 15:11:38;;;;;;;5.70;4.77;;;;;;;15.16;23.05;98945.47;7083868;27;20228;-77
2023/04/05 15:15:00;;;;;;;4.77;4.27;;;;;;;15.74;23.02;98946.50;7083057;27;20257;-78
2023/04/05 15:18:23;;;;;;;4.47;4.07;;;;;;;16.01;23.02;98945.78;7085602;27;20205;-77
2023/04/05 15:21:45;;;;;;;5.33;4.00;;;;;;;15.54;23.00;98935.09;7086970;27;20206;-78
2023/04/05 15:25:07;;;;;;;5.07;4.23;;;;;;;16.58;22.07;98933.22;7057943;28;20242;-78
2023/04/05 15:28:29;;;;;;;6.43;4.20;;;;;;;16.88;21.87;98936.56;7055948;28;20214;-77
2023/04/05 15:31:50;;;;;;;6.30;4.37;;;;;;;15.00;22.52;98935.25;7067010;27;20208;-77
2023/04/05 15:35:13;;;;;;;4.97;4.50;;;;;;;14.45;23.04;98931.78;7081755;27;20253;-78
2023/04/05 15:38:35;;;;;;;6.07;4.33;;;;;;;15.01;22.23;98935.03;7081364;27;20679;-77
2023/04/05 15:41:57;;;;;;;7.57;5.00;;;;;;;15.66;22.61;98931.34;7081391;27;20213;-81
2023/04/05 15:45:18;;;;;;;4.47;4.03;;;;;;;15.89;21.80;98935.97;7073969;27;20248;-78
2023/04/05 15:48:42;;;;;;;5.10;4.30;;;;;;;16.24;21.78;98934.06;7062611;27;20222;-79
2023/04/05 15:52:05;;;;;;;5.00;4.00;;;;;;;16.19;21.44;98929.34;7055071;27;20241;-82
2023/04/05 15:55:27;;;;;;;5.43;3.90;;;;;;;15.42;22.22;98936.97;7054226;28;20235;-77
2023/04/05 15:58:48;;;;;;;5.17;4.20;;;;;;;15.10;22.61;98897.53;7054121;28;20239;-78